Main page
METAR-TAF:

METAR-TAF

Airports :

Oradea International Airport

Oradea, Romania

latitude: 47-03N, longitude: 021-56E, elevation: 135 m

Current weather observation

The report was made 12 minutes ago, at 12:00 UTC
Wind 5 kt from the Southwest, varying between South and West/Southwest
Temperature 8°C
Humidity 66%
Pressure 1031 hPa
Visibility 10 km or more
Few clouds at a height of 2700 ft

METAR: LROD 221200Z 23005KT 190V250 9999 FEW027 08/02 Q1031 R01/29//95

Time: 14:12 (12:12 UTC)

Forecast

The report was made 1 hour and 12 minutes ago, at 11:00 UTC
Forecast valid from 22 at 12 UTC to 22 at 21 UTC
Wind 6 kt from the West
Visibility 10 km or more
no clouds below 1500 m and no cumulonimbus
Becoming
from 22 at 15 UTC to 22 at 17 UTC
Wind 10 kt from the South

TAF: LROD 221100Z 2212/2221 27006KT CAVOK BECMG 2215/2217 18010KT

Weather observations and forecasts of more than 4000 airports (METAR and TAF reports).

The available stations are represented by yellow and red dots on the map.

Hover mouse over dot to see the name of the station.

Then click to see weather observations and forecasts.

To change the map : click on the green buttons with a black cross to zoom in, on the green button with a dash to zoom out, or on the green arrows for adjacent maps.


METAR-TAF: